sensor_id;sensor_type;location;lat;lon;timestamp;pressure;altitude;pressure_sealevel;temperature;humidity
74975;BME280;68459;50.836;19.138;2023-12-20T00:02:25;98094.06;;;5.29;70.51
74975;BME280;68459;50.836;19.138;2023-12-20T00:05:29;98101.47;;;5.27;72.53
74975;BME280;68459;50.836;19.138;2023-12-20T00:08:34;98100.84;;;5.25;71.50
74975;BME280;68459;50.836;19.138;2023-12-20T00:11:38;98093.00;;;5.23;74.02
74975;BME280;68459;50.836;19.138;2023-12-20T00:14:44;98073.47;;;5.16;71.50
74975;BME280;68459;50.836;19.138;2023-12-20T00:17:49;98080.06;;;5.14;72.24
74975;BME280;68459;50.836;19.138;2023-12-20T00:20:53;98072.44;;;5.11;72.82
74975;BME280;68459;50.836;19.138;2023-12-20T00:23:57;98076.13;;;5.10;73.42
74975;BME280;68459;50.836;19.138;2023-12-20T00:27:00;98063.78;;;5.09;72.90
74975;BME280;68459;50.836;19.138;2023-12-20T00:30:05;98062.97;;;5.08;73.11
74975;BME280;68459;50.836;19.138;2023-12-20T00:33:12;98053.72;;;5.04;73.42
74975;BME280;68459;50.836;19.138;2023-12-20T00:36:16;98059.06;;;5.04;74.99
74975;BME280;68459;50.836;19.138;2023-12-20T00:39:20;98060.69;;;4.98;73.52
74975;BME280;68459;50.836;19.138;2023-12-20T00:42:24;98068.28;;;4.95;74.42
74975;BME280;68459;50.836;19.138;2023-12-20T00:45:28;98065.81;;;4.93;74.46
74975;BME280;68459;50.836;19.138;2023-12-20T00:48:33;98066.44;;;4.95;74.06
74975;BME280;68459;50.836;19.138;2023-12-20T00:51:37;98060.88;;;4.97;74.17
74975;BME280;68459;50.836;19.138;2023-12-20T00:54:41;98056.38;;;4.97;74.19
74975;BME280;68459;50.836;19.138;2023-12-20T00:57:45;98035.00;;;4.97;73.58
74975;BME280;68459;50.836;19.138;2023-12-20T01:00:50;98039.31;;;4.98;74.23
74975;BME280;68459;50.836;19.138;2023-12-20T01:03:55;98036.66;;;4.98;73.95
74975;BME280;68459;50.836;19.138;2023-12-20T01:06:59;98034.78;;;4.99;74.82
74975;BME280;68459;50.836;19.138;2023-12-20T01:10:04;98037.25;;;5.00;73.50
74975;BME280;68459;50.836;19.138;2023-12-20T01:13:08;98032.53;;;5.03;74.60
74975;BME280;68459;50.836;19.138;2023-12-20T01:16:12;98018.16;;;5.04;75.15
74975;BME280;68459;50.836;19.138;2023-12-20T01:19:18;98014.22;;;5.06;74.12
74975;BME280;68459;50.836;19.138;2023-12-20T01:22:22;98014.84;;;5.08;75.01
74975;BME280;68459;50.836;19.138;2023-12-20T01:25:26;98014.84;;;5.08;74.81
74975;BME280;68459;50.836;19.138;2023-12-20T01:28:30;98011.97;;;5.10;74.00
74975;BME280;68459;50.836;19.138;2023-12-20T01:31:35;97994.72;;;5.12;74.75
74975;BME280;68459;50.836;19.138;2023-12-20T01:34:40;97985.47;;;5.15;75.05
74975;BME280;68459;50.836;19.138;2023-12-20T01:37:44;97985.47;;;5.15;74.64
74975;BME280;68459;50.836;19.138;2023-12-20T01:40:48;97968.41;;;5.16;75.08
74975;BME280;68459;50.836;19.138;2023-12-20T01:43:53;97949.91;;;5.14;74.00
74975;BME280;68459;50.836;19.138;2023-12-20T01:46:56;97944.56;;;5.14;74.87
74975;BME280;68459;50.836;19.138;2023-12-20T01:50:03;97938.59;;;5.12;75.02
74975;BME280;68459;50.836;19.138;2023-12-20T01:53:12;97945.78;;;5.12;75.00
74975;BME280;68459;50.836;19.138;2023-12-20T01:56:16;97953.19;;;5.10;75.13
74975;BME280;68459;50.836;19.138;2023-12-20T01:59:20;97956.88;;;5.09;76.33
74975;BME280;68459;50.836;19.138;2023-12-20T02:02:26;97955.66;;;5.05;75.10
74975;BME280;68459;50.836;19.138;2023-12-20T02:05:33;97957.72;;;5.03;76.79
74975;BME280;68459;50.836;19.138;2023-12-20T02:08:38;97959.78;;;5.00;76.23
74975;BME280;68459;50.836;19.138;2023-12-20T02:11:43;97949.50;;;4.97;76.55
74975;BME280;68459;50.836;19.138;2023-12-20T02:14:47;97947.22;;;4.94;75.60
74975;BME280;68459;50.836;19.138;2023-12-20T02:17:51;97928.50;;;4.94;75.89
74975;BME280;68459;50.836;19.138;2023-12-20T02:20:57;97929.53;;;4.93;76.23
74975;BME280;68459;50.836;19.138;2023-12-20T02:24:02;97916.19;;;4.93;76.01
74975;BME280;68459;50.836;19.138;2023-12-20T02:27:07;97915.34;;;4.93;77.18
74975;BME280;68459;50.836;19.138;2023-12-20T02:30:11;97903.06;;;4.92;77.50
74975;BME280;68459;50.836;19.138;2023-12-20T02:33:16;97903.25;;;4.90;76.15
74975;BME280;68459;50.836;19.138;2023-12-20T02:36:20;97905.09;;;4.90;76.37
74975;BME280;68459;50.836;19.138;2023-12-20T02:39:25;97912.28;;;4.89;77.46
74975;BME280;68459;50.836;19.138;2023-12-20T02:42:29;97907.97;;;4.88;76.83
74975;BME280;68459;50.836;19.138;2023-12-20T02:45:33;97917.84;;;4.88;76.45
74975;BME280;68459;50.836;19.138;2023-12-20T02:48:37;97917.84;;;4.88;77.70
74975;BME280;68459;50.836;19.138;2023-12-20T02:51:41;97908.81;;;4.89;77.27
74975;BME280;68459;50.836;19.138;2023-12-20T02:54:47;97908.59;;;4.90;78.03
74975;BME280;68459;50.836;19.138;2023-12-20T02:57:51;97912.91;;;4.91;77.43
74975;BME280;68459;50.836;19.138;2023-12-20T03:00:55;97916.19;;;4.93;77.97
74975;BME280;68459;50.836;19.138;2023-12-20T03:03:59;97909.22;;;4.92;77.74
74975;BME280;68459;50.836;19.138;2023-12-20T03:07:03;97909.00;;;4.94;78.20
74975;BME280;68459;50.836;19.138;2023-12-20T03:10:09;97900.97;;;4.94;77.71
74975;BME280;68459;50.836;19.138;2023-12-20T03:13:24;97902.63;;;4.95;77.61
74975;BME280;68459;50.836;19.138;2023-12-20T03:16:29;97902.63;;;4.95;77.69
74975;BME280;68459;50.836;19.138;2023-12-20T03:19:35;97900.56;;;4.97;78.55
74975;BME280;68459;50.836;19.138;2023-12-20T03:22:39;97897.91;;;4.97;77.47
74975;BME280;68459;50.836;19.138;2023-12-20T03:25:44;97898.31;;;5.00;77.92
74975;BME280;68459;50.836;19.138;2023-12-20T03:28:48;97895.44;;;5.02;77.59
74975;BME280;68459;50.836;19.138;2023-12-20T03:31:52;97896.25;;;5.03;77.50
74975;BME280;68459;50.836;19.138;2023-12-20T03:34:56;97899.56;;;5.05;78.10
74975;BME280;68459;50.836;19.138;2023-12-20T03:38:00;97895.84;;;5.06;77.16
74975;BME280;68459;50.836;19.138;2023-12-20T03:41:07;97890.88;;;5.09;78.59
74975;BME280;68459;50.836;19.138;2023-12-20T03:44:10;97880.81;;;5.11;77.48
74975;BME280;68459;50.836;19.138;2023-12-20T03:47:15;97889.47;;;5.13;77.56
74975;BME280;68459;50.836;19.138;2023-12-20T03:50:18;97889.88;;;5.17;77.64
74975;BME280;68459;50.836;19.138;2023-12-20T03:53:25;97887.00;;;5.18;78.12
74975;BME280;68459;50.836;19.138;2023-12-20T03:56:30;97879.78;;;5.19;77.05
74975;BME280;68459;50.836;19.138;2023-12-20T03:59:36;97885.72;;;5.21;77.56
74975;BME280;68459;50.836;19.138;2023-12-20T04:02:41;97886.56;;;5.21;77.50
74975;BME280;68459;50.836;19.138;2023-12-20T04:05:46;97884.09;;;5.20;79.06
74975;BME280;68459;50.836;19.138;2023-12-20T04:08:50;97890.50;;;5.19;77.74
74975;BME280;68459;50.836;19.138;2023-12-20T04:11:56;97883.50;;;5.18;78.16
74975;BME280;68459;50.836;19.138;2023-12-20T04:15:00;97883.69;;;5.16;78.13
74975;BME280;68459;50.836;19.138;2023-12-20T04:18:06;97884.94;;;5.14;78.60
74975;BME280;68459;50.836;19.138;2023-12-20T04:21:10;97879.59;;;5.14;78.08
74975;BME280;68459;50.836;19.138;2023-12-20T04:24:13;97876.09;;;5.13;78.21
74975;BME280;68459;50.836;19.138;2023-12-20T04:27:18;97872.81;;;5.11;78.80
74975;BME280;68459;50.836;19.138;2023-12-20T04:30:23;97870.34;;;5.10;78.45
74975;BME280;68459;50.836;19.138;2023-12-20T04:33:26;97873.00;;;5.10;77.84
74975;BME280;68459;50.836;19.138;2023-12-20T04:36:31;97872.38;;;5.08;78.25
74975;BME280;68459;50.836;19.138;2023-12-20T04:39:34;97875.88;;;5.08;78.49
74975;BME280;68459;50.836;19.138;2023-12-20T04:42:40;97873.00;;;5.10;78.49
74975;BME280;68459;50.836;19.138;2023-12-20T04:45:44;97873.00;;;5.10;78.41
74975;BME280;68459;50.836;19.138;2023-12-20T04:48:48;97884.31;;;5.12;79.02
74975;BME280;68459;50.836;19.138;2023-12-20T04:51:52;97884.94;;;5.14;79.09
74975;BME280;68459;50.836;19.138;2023-12-20T04:54:57;97881.44;;;5.13;79.11
74975;BME280;68459;50.836;19.138;2023-12-20T04:58:03;97885.56;;;5.16;78.25
74975;BME280;68459;50.836;19.138;2023-12-20T05:01:08;97888.22;;;5.16;78.77
74975;BME280;68459;50.836;19.138;2023-12-20T05:04:12;97884.09;;;5.13;78.61
74975;BME280;68459;50.836;19.138;2023-12-20T05:07:17;97885.13;;;5.12;79.44
74975;BME280;68459;50.836;19.138;2023-12-20T05:10:21;97880.00;;;5.11;78.66
74975;BME280;68459;50.836;19.138;2023-12-20T05:13:26;97876.50;;;5.10;80.16
74975;BME280;68459;50.836;19.138;2023-12-20T05:16:43;97877.53;;;5.09;79.76
74975;BME280;68459;50.836;19.138;2023-12-20T05:19:47;97890.28;;;5.07;78.87
74975;BME280;68459;50.836;19.138;2023-12-20T05:22:51;97875.25;;;5.06;79.03
74975;BME280;68459;50.836;19.138;2023-12-20T05:25:55;97888.03;;;5.04;78.92
74975;BME280;68459;50.836;19.138;2023-12-20T05:29:00;97883.72;;;5.03;79.86
74975;BME280;68459;50.836;19.138;2023-12-20T05:32:05;97884.34;;;5.05;79.54
74975;BME280;68459;50.836;19.138;2023-12-20T05:35:09;97875.25;;;5.06;78.94
74975;BME280;68459;50.836;19.138;2023-12-20T05:38:13;97865.41;;;5.07;79.02
74975;BME280;68459;50.836;19.138;2023-12-20T05:41:17;97870.16;;;5.05;79.89
74975;BME280;68459;50.836;19.138;2023-12-20T05:44:22;97871.81;;;5.06;80.45
74975;BME280;68459;50.836;19.138;2023-12-20T05:47:26;97864.81;;;5.05;79.82
74975;BME280;68459;50.836;19.138;2023-12-20T05:50:30;97866.47;;;5.06;79.75
74975;BME280;68459;50.836;19.138;2023-12-20T05:53:33;97866.66;;;5.04;79.01
74975;BME280;68459;50.836;19.138;2023-12-20T05:56:38;97862.97;;;5.05;79.40
74975;BME280;68459;50.836;19.138;2023-12-20T05:59:43;97856.56;;;5.06;79.34
74975;BME280;68459;50.836;19.138;2023-12-20T06:02:47;97858.19;;;5.07;79.50
74975;BME280;68459;50.836;19.138;2023-12-20T06:05:51;97853.09;;;5.06;79.77
74975;BME280;68459;50.836;19.138;2023-12-20T06:09:12;97846.50;;;5.01;79.83
74975;BME280;68459;50.836;19.138;2023-12-20T06:12:17;97849.59;;;4.98;79.86
74975;BME280;68459;50.836;19.138;2023-12-20T06:15:23;97848.16;;;4.96;79.58
74975;BME280;68459;50.836;19.138;2023-12-20T06:18:27;97851.03;;;4.94;79.08
74975;BME280;68459;50.836;19.138;2023-12-20T06:21:30;97859.66;;;4.96;79.17
74975;BME280;68459;50.836;19.138;2023-12-20T06:24:34;97861.50;;;4.96;79.06
74975;BME280;68459;50.836;19.138;2023-12-20T06:27:38;97863.56;;;4.94;79.22
74975;BME280;68459;50.836;19.138;2023-12-20T06:30:44;97864.81;;;4.91;79.30
74975;BME280;68459;50.836;19.138;2023-12-20T06:33:49;97862.97;;;4.92;79.38
74975;BME280;68459;50.836;19.138;2023-12-20T06:37:00;97876.75;;;4.89;79.48
74975;BME280;68459;50.836;19.138;2023-12-20T06:40:05;97879.63;;;4.87;79.53
74975;BME280;68459;50.836;19.138;2023-12-20T06:43:19;97877.16;;;4.86;80.58
74975;BME280;68459;50.836;19.138;2023-12-20T06:46:44;97872.41;;;4.81;79.39
74975;BME280;68459;50.836;19.138;2023-12-20T06:49:48;97875.53;;;4.78;78.97
74975;BME280;68459;50.836;19.138;2023-12-20T06:52:52;97867.72;;;4.77;79.88
74975;BME280;68459;50.836;19.138;2023-12-20T06:55:56;97877.56;;;4.76;79.64
74975;BME280;68459;50.836;19.138;2023-12-20T06:59:00;97874.06;;;4.76;79.67
74975;BME280;68459;50.836;19.138;2023-12-20T07:02:05;97894.81;;;4.74;79.42
74975;BME280;68459;50.836;19.138;2023-12-20T07:05:16;97887.00;;;4.72;79.71
74975;BME280;68459;50.836;19.138;2023-12-20T07:08:22;97888.84;;;4.72;79.74
74975;BME280;68459;50.836;19.138;2023-12-20T07:11:26;97888.84;;;4.72;79.24
74975;BME280;68459;50.836;19.138;2023-12-20T07:14:29;97889.69;;;4.72;79.67
74975;BME280;68459;50.836;19.138;2023-12-20T07:17:35;97905.09;;;4.70;79.68
74975;BME280;68459;50.836;19.138;2023-12-20T07:20:38;97897.28;;;4.69;80.43
74975;BME280;68459;50.836;19.138;2023-12-20T07:23:42;97894.81;;;4.67;80.22
74975;BME280;68459;50.836;19.138;2023-12-20T07:26:46;97897.47;;;4.67;79.46
74975;BME280;68459;50.836;19.138;2023-12-20T07:29:50;97903.84;;;4.66;80.42
74975;BME280;68459;50.836;19.138;2023-12-20T07:32:55;97900.38;;;4.65;79.75
74975;BME280;68459;50.836;19.138;2023-12-20T07:36:00;97898.31;;;4.61;80.49
74975;BME280;68459;50.836;19.138;2023-12-20T07:39:04;97897.69;;;4.59;79.32
74975;BME280;68459;50.836;19.138;2023-12-20T07:42:08;97908.16;;;4.54;80.49
74975;BME280;68459;50.836;19.138;2023-12-20T07:45:13;97899.94;;;4.49;80.26
74975;BME280;68459;50.836;19.138;2023-12-20T07:48:18;97907.94;;;4.49;80.09
74975;BME280;68459;50.836;19.138;2023-12-20T07:51:22;97896.66;;;4.47;80.09
74975;BME280;68459;50.836;19.138;2023-12-20T07:54:26;97903.00;;;4.46;79.73
74975;BME280;68459;50.836;19.138;2023-12-20T07:57:30;97894.78;;;4.41;80.30
74975;BME280;68459;50.836;19.138;2023-12-20T08:00:34;97901.38;;;4.38;79.85
74975;BME280;68459;50.836;19.138;2023-12-20T08:03:39;97906.28;;;4.35;80.42
74975;BME280;68459;50.836;19.138;2023-12-20T08:06:43;97900.75;;;4.36;80.72
74975;BME280;68459;50.836;19.138;2023-12-20T08:09:47;97901.97;;;4.40;79.46
74975;BME280;68459;50.836;19.138;2023-12-20T08:12:51;97895.59;;;4.41;79.72
74975;BME280;68459;50.836;19.138;2023-12-20T08:15:55;97895.59;;;4.41;80.01
74975;BME280;68459;50.836;19.138;2023-12-20T08:19:00;97903.41;;;4.43;80.39
74975;BME280;68459;50.836;19.138;2023-12-20T08:22:04;97914.28;;;4.41;80.21
74975;BME280;68459;50.836;19.138;2023-12-20T08:25:09;97911.22;;;4.38;80.53
74975;BME280;68459;50.836;19.138;2023-12-20T08:28:13;97912.44;;;4.35;79.79
74975;BME280;68459;50.836;19.138;2023-12-20T08:31:18;97914.28;;;4.35;79.87
74975;BME280;68459;50.836;19.138;2023-12-20T08:34:24;97922.31;;;4.35;80.70
74975;BME280;68459;50.836;19.138;2023-12-20T08:37:29;97921.69;;;4.33;79.73
74975;BME280;68459;50.836;19.138;2023-12-20T08:40:33;97919.00;;;4.33;79.64
74975;BME280;68459;50.836;19.138;2023-12-20T08:43:38;97914.06;;;4.29;79.82
74975;BME280;68459;50.836;19.138;2023-12-20T08:46:43;97917.34;;;4.32;80.24
74975;BME280;68459;50.836;19.138;2023-12-20T08:49:48;97914.06;;;4.29;80.65
74975;BME280;68459;50.836;19.138;2023-12-20T08:52:52;97920.63;;;4.27;80.91
74975;BME280;68459;50.836;19.138;2023-12-20T08:55:56;97926.78;;;4.27;80.52
74975;BME280;68459;50.836;19.138;2023-12-20T08:59:03;97927.22;;;4.31;79.64
74975;BME280;68459;50.836;19.138;2023-12-20T09:02:07;97927.00;;;4.33;80.46
74975;BME280;68459;50.836;19.138;2023-12-20T09:05:12;97928.47;;;4.35;80.66
74975;BME280;68459;50.836;19.138;2023-12-20T09:08:16;97921.91;;;4.38;79.79
74975;BME280;68459;50.836;19.138;2023-12-20T09:11:20;97921.91;;;4.38;80.73
74975;BME280;68459;50.836;19.138;2023-12-20T09:14:24;97923.94;;;4.36;80.67
74975;BME280;68459;50.836;19.138;2023-12-20T09:17:28;97916.56;;;4.38;80.02
74975;BME280;68459;50.836;19.138;2023-12-20T09:20:35;97916.13;;;4.41;79.81
74975;BME280;68459;50.836;19.138;2023-12-20T09:23:42;97907.09;;;4.42;79.59
74975;BME280;68459;50.836;19.138;2023-12-20T09:26:46;97893.75;;;4.42;80.65
74975;BME280;68459;50.836;19.138;2023-12-20T09:29:50;97898.06;;;4.43;80.29
74975;BME280;68459;50.836;19.138;2023-12-20T09:32:56;97898.06;;;4.43;80.59
74975;BME280;68459;50.836;19.138;2023-12-20T09:36:01;97899.91;;;4.42;81.04
74975;BME280;68459;50.836;19.138;2023-12-20T09:39:05;97900.53;;;4.44;80.25
74975;BME280;68459;50.836;19.138;2023-12-20T09:42:11;97883.69;;;4.44;80.57
74975;BME280;68459;50.836;19.138;2023-12-20T09:45:20;97889.03;;;4.44;80.99
74975;BME280;68459;50.836;19.138;2023-12-20T09:48:25;97883.69;;;4.44;80.35
74975;BME280;68459;50.836;19.138;2023-12-20T09:51:32;97893.97;;;4.47;80.40
74975;BME280;68459;50.836;19.138;2023-12-20T09:54:36;97884.13;;;4.47;80.60
74975;BME280;68459;50.836;19.138;2023-12-20T09:57:41;97882.91;;;4.50;80.38
74975;BME280;68459;50.836;19.138;2023-12-20T10:00:46;97881.47;;;4.47;79.96
74975;BME280;68459;50.836;19.138;2023-12-20T10:03:51;97887.00;;;4.46;79.82
74975;BME280;68459;50.836;19.138;2023-12-20T10:07:02;97876.72;;;4.43;80.36
74975;BME280;68459;50.836;19.138;2023-12-20T10:10:09;97877.13;;;4.40;80.80
74975;BME280;68459;50.836;19.138;2023-12-20T10:13:15;97880.03;;;4.38;80.40
74975;BME280;68459;50.836;19.138;2023-12-20T10:16:24;97877.53;;;4.37;80.70
74975;BME280;68459;50.836;19.138;2023-12-20T10:19:28;97877.13;;;4.40;80.27
74975;BME280;68459;50.836;19.138;2023-12-20T10:22:34;97866.44;;;4.40;80.80
74975;BME280;68459;50.836;19.138;2023-12-20T10:25:38;97875.06;;;4.35;80.36
74975;BME280;68459;50.836;19.138;2023-12-20T10:28:44;97865.81;;;4.31;80.08
74975;BME280;68459;50.836;19.138;2023-12-20T10:31:48;97868.28;;;4.33;80.01
74975;BME280;68459;50.836;19.138;2023-12-20T10:34:53;97863.97;;;4.32;80.72
74975;BME280;68459;50.836;19.138;2023-12-20T10:38:03;97868.91;;;4.35;80.92
74975;BME280;68459;50.836;19.138;2023-12-20T10:41:09;97875.91;;;4.36;81.39
74975;BME280;68459;50.836;19.138;2023-12-20T10:44:13;97872.59;;;4.34;80.53
74975;BME280;68459;50.836;19.138;2023-12-20T10:47:19;97873.00;;;4.30;80.77
74975;BME280;68459;50.836;19.138;2023-12-20T10:50:23;97864.59;;;4.34;80.22
74975;BME280;68459;50.836;19.138;2023-12-20T10:53:29;97868.50;;;4.38;81.13
74975;BME280;68459;50.836;19.138;2023-12-20T10:56:33;97868.50;;;4.38;80.76
74975;BME280;68459;50.836;19.138;2023-12-20T10:59:39;97864.81;;;4.39;80.92
74975;BME280;68459;50.836;19.138;2023-12-20T11:02:43;97869.72;;;4.42;81.06
74975;BME280;68459;50.836;19.138;2023-12-20T11:05:53;97864.38;;;4.42;81.52
74975;BME280;68459;50.836;19.138;2023-12-20T11:09:10;97857.00;;;4.44;81.46
74975;BME280;68459;50.836;19.138;2023-12-20T11:12:22;97863.16;;;4.44;81.49
74975;BME280;68459;50.836;19.138;2023-12-20T11:15:32;97855.34;;;4.43;81.55
74975;BME280;68459;50.836;19.138;2023-12-20T11:18:36;97848.41;;;4.48;80.23
74975;BME280;68459;50.836;19.138;2023-12-20T11:21:40;97848.81;;;4.52;81.13
74975;BME280;68459;50.836;19.138;2023-12-20T11:24:46;97851.66;;;4.57;81.21
74975;BME280;68459;50.836;19.138;2023-12-20T11:28:09;97847.56;;;4.61;81.19
74975;BME280;68459;50.836;19.138;2023-12-20T11:31:15;97853.09;;;4.66;80.79
74975;BME280;68459;50.836;19.138;2023-12-20T11:34:19;97853.72;;;4.68;79.96
74975;BME280;68459;50.836;19.138;2023-12-20T11:37:28;97854.97;;;4.65;80.74
74975;BME280;68459;50.836;19.138;2023-12-20T11:40:36;97842.84;;;4.63;80.86
74975;BME280;68459;50.836;19.138;2023-12-20T11:43:40;97848.41;;;4.61;80.61
74975;BME280;68459;50.836;19.138;2023-12-20T11:46:44;97846.16;;;4.65;79.97
74975;BME280;68459;50.836;19.138;2023-12-20T11:49:48;97848.41;;;4.61;80.32
74975;BME280;68459;50.836;19.138;2023-12-20T11:52:53;97847.56;;;4.61;80.58
74975;BME280;68459;50.836;19.138;2023-12-20T11:55:59;97836.06;;;4.60;80.30
74975;BME280;68459;50.836;19.138;2023-12-20T11:59:05;97845.09;;;4.66;80.09
74975;BME280;68459;50.836;19.138;2023-12-20T12:02:24;97850.44;;;4.66;80.66
74975;BME280;68459;50.836;19.138;2023-12-20T12:05:28;97833.63;;;4.65;79.93
74975;BME280;68459;50.836;19.138;2023-12-20T12:08:32;97836.88;;;4.61;80.70
74975;BME280;68459;50.836;19.138;2023-12-20T12:11:37;97829.88;;;4.53;80.62
74975;BME280;68459;50.836;19.138;2023-12-20T12:14:41;97834.22;;;4.48;80.57
74975;BME280;68459;50.836;19.138;2023-12-20T12:17:52;97836.28;;;4.46;80.90
74975;BME280;68459;50.836;19.138;2023-12-20T12:21:01;97832.78;;;4.45;81.18
74975;BME280;68459;50.836;19.138;2023-12-20T12:24:14;97822.28;;;4.44;80.59
74975;BME280;68459;50.836;19.138;2023-12-20T12:27:20;97830.31;;;4.44;80.63
74975;BME280;68459;50.836;19.138;2023-12-20T12:30:23;97818.81;;;4.43;81.24
74975;BME280;68459;50.836;19.138;2023-12-20T12:33:34;97830.53;;;4.49;81.60
74975;BME280;68459;50.836;19.138;2023-12-20T12:36:38;97818.38;;;4.66;80.85
74975;BME280;68459;50.836;19.138;2023-12-20T12:39:43;97821.03;;;4.86;80.21
74975;BME280;68459;50.836;19.138;2023-12-20T12:42:48;97819.59;;;5.03;80.38
74975;BME280;68459;50.836;19.138;2023-12-20T12:45:53;97816.25;;;5.08;80.16
74975;BME280;68459;50.836;19.138;2023-12-20T12:48:57;97813.22;;;5.04;79.97
74975;BME280;68459;50.836;19.138;2023-12-20T12:52:02;97812.59;;;4.95;79.99
74975;BME280;68459;50.836;19.138;2023-12-20T12:55:07;97813.44;;;4.89;80.08
74975;BME280;68459;50.836;19.138;2023-12-20T12:58:13;97816.72;;;4.91;79.53
74975;BME280;68459;50.836;19.138;2023-12-20T13:01:16;97799.88;;;4.91;79.17
74975;BME280;68459;50.836;19.138;2023-12-20T13:04:21;97808.47;;;4.99;79.28
74975;BME280;68459;50.836;19.138;2023-12-20T13:07:25;97799.81;;;5.11;78.91
74975;BME280;68459;50.836;19.138;2023-12-20T13:10:30;97802.66;;;5.29;79.48
74975;BME280;68459;50.836;19.138;2023-12-20T13:13:36;97797.31;;;5.29;79.25
74975;BME280;68459;50.836;19.138;2023-12-20T13:16:40;97792.56;;;5.24;78.96
74975;BME280;68459;50.836;19.138;2023-12-20T13:19:44;97788.09;;;5.12;79.00
74975;BME280;68459;50.836;19.138;2023-12-20T13:22:48;97797.78;;;4.99;78.62
74975;BME280;68459;50.836;19.138;2023-12-20T13:25:52;97805.19;;;4.97;79.39
74975;BME280;68459;50.836;19.138;2023-12-20T13:28:57;97811.97;;;4.93;79.00
74975;BME280;68459;50.836;19.138;2023-12-20T13:32:01;97807.69;;;4.92;78.92
74975;BME280;68459;50.836;19.138;2023-12-20T13:35:07;97818.97;;;4.94;78.56
74975;BME280;68459;50.836;19.138;2023-12-20T13:38:12;97807.25;;;4.95;78.50
74975;BME280;68459;50.836;19.138;2023-12-20T13:41:17;97799.66;;;4.99;79.46
74975;BME280;68459;50.836;19.138;2023-12-20T13:44:22;97799.19;;;5.09;78.64
74975;BME280;68459;50.836;19.138;2023-12-20T13:47:27;97794.84;;;5.21;78.07
74975;BME280;68459;50.836;19.138;2023-12-20T13:50:31;97797.75;;;5.13;78.44
74975;BME280;68459;50.836;19.138;2023-12-20T13:53:35;97809.28;;;5.07;78.25
74975;BME280;68459;50.836;19.138;2023-12-20T13:56:40;97818.34;;;5.06;78.60
74975;BME280;68459;50.836;19.138;2023-12-20T14:00:06;97800.44;;;5.19;78.34
74975;BME280;68459;50.836;19.138;2023-12-20T14:03:16;97804.00;;;5.96;78.14
74975;BME280;68459;50.836;19.138;2023-12-20T14:06:22;97808.88;;;6.05;77.20
74975;BME280;68459;50.836;19.138;2023-12-20T14:09:25;97797.09;;;6.13;78.05
74975;BME280;68459;50.836;19.138;2023-12-20T14:12:29;97793.25;;;6.34;77.14
74975;BME280;68459;50.836;19.138;2023-12-20T14:15:35;97796.03;;;6.46;77.15
74975;BME280;68459;50.836;19.138;2023-12-20T14:18:41;97790.59;;;6.27;76.45
74975;BME280;68459;50.836;19.138;2023-12-20T14:21:45;97779.31;;;5.87;76.51
74975;BME280;68459;50.836;19.138;2023-12-20T14:24:49;97780.56;;;5.47;76.92
74975;BME280;68459;50.836;19.138;2023-12-20T14:27:53;97788.72;;;5.14;77.05
74975;BME280;68459;50.836;19.138;2023-12-20T14:30:58;97786.31;;;4.92;77.46
74975;BME280;68459;50.836;19.138;2023-12-20T14:34:02;97797.22;;;4.78;78.35
74975;BME280;68459;50.836;19.138;2023-12-20T14:37:07;97813.47;;;4.70;77.64
74975;BME280;68459;50.836;19.138;2023-12-20T14:40:11;97785.72;;;4.57;78.88
74975;BME280;68459;50.836;19.138;2023-12-20T14:43:19;97799.09;;;4.44;78.48
74975;BME280;68459;50.836;19.138;2023-12-20T14:46:26;97792.31;;;4.35;78.97
74975;BME280;68459;50.836;19.138;2023-12-20T14:49:31;97793.75;;;4.31;78.99
74975;BME280;68459;50.836;19.138;2023-12-20T14:52:35;97802.59;;;4.32;78.42
74975;BME280;68459;50.836;19.138;2023-12-20T14:55:39;97808.53;;;4.27;79.16
74975;BME280;68459;50.836;19.138;2023-12-20T14:58:43;97803.63;;;4.24;79.46
74975;BME280;68459;50.836;19.138;2023-12-20T15:01:48;97808.13;;;4.23;79.67
74975;BME280;68459;50.836;19.138;2023-12-20T15:04:53;97804.25;;;4.26;79.44
74975;BME280;68459;50.836;19.138;2023-12-20T15:07:57;97811.00;;;4.28;78.88
74975;BME280;68459;50.836;19.138;2023-12-20T15:11:01;97805.66;;;4.28;78.59
74975;BME280;68459;50.836;19.138;2023-12-20T15:14:06;97811.00;;;4.28;78.94
74975;BME280;68459;50.836;19.138;2023-12-20T15:17:11;97792.75;;;4.25;78.72
74975;BME280;68459;50.836;19.138;2023-12-20T15:20:16;97795.81;;;4.22;79.23
74975;BME280;68459;50.836;19.138;2023-12-20T15:23:20;97798.28;;;4.24;79.67
74975;BME280;68459;50.836;19.138;2023-12-20T15:26:28;97790.47;;;4.22;79.41
74975;BME280;68459;50.836;19.138;2023-12-20T15:29:32;97780.41;;;4.18;79.67
74975;BME280;68459;50.836;19.138;2023-12-20T15:32:38;97784.31;;;4.15;79.37
74975;BME280;68459;50.836;19.138;2023-12-20T15:35:42;97767.66;;;4.13;79.17
74975;BME280;68459;50.836;19.138;2023-12-20T15:38:47;97767.91;;;4.12;79.86
74975;BME280;68459;50.836;19.138;2023-12-20T15:41:51;97767.47;;;4.08;80.25
74975;BME280;68459;50.836;19.138;2023-12-20T15:44:55;97760.50;;;4.07;79.21
74975;BME280;68459;50.836;19.138;2023-12-20T15:48:00;97753.50;;;4.06;79.97
74975;BME280;68459;50.836;19.138;2023-12-20T15:51:04;97762.53;;;4.05;79.87
74975;BME280;68459;50.836;19.138;2023-12-20T15:54:08;97770.34;;;4.07;79.46
74975;BME280;68459;50.836;19.138;2023-12-20T15:57:12;97768.50;;;4.07;80.49
74975;BME280;68459;50.836;19.138;2023-12-20T16:00:18;97762.97;;;4.09;79.77
74975;BME280;68459;50.836;19.138;2023-12-20T16:03:24;97756.81;;;4.08;79.45
74975;BME280;68459;50.836;19.138;2023-12-20T16:06:29;97754.34;;;4.07;80.34
74975;BME280;68459;50.836;19.138;2023-12-20T16:09:33;97748.56;;;4.03;79.51
74975;BME280;68459;50.836;19.138;2023-12-20T16:12:37;97748.56;;;4.03;80.25
74975;BME280;68459;50.836;19.138;2023-12-20T16:15:42;97754.75;;;4.04;80.02
74975;BME280;68459;50.836;19.138;2023-12-20T16:18:47;97757.00;;;4.07;79.65
74975;BME280;68459;50.836;19.138;2023-12-20T16:21:52;97740.78;;;4.08;79.50